Time;durP1;ratioP1;P1;durP2;ratioP2;P2;SDS_P1;SDS_P2;PMS_P1;PMS_P2;Temp;Humidity;BMP_temperature;BMP_pressure;BME280_temperature;BME280_humidity;BME280_pressure;Samples;Min_cycle;Max_cycle;Signal;HPM_P1;HPM_P2
2023/07/24 00:02:15;;;;;;;16.95;15.65;;;;;;;24.60;38.55;99503.25;4975246;28;97772;-72
2023/07/24 00:04:40;;;;;;;17.60;15.95;;;;;;;24.42;38.72;99505.19;4974184;28;97406;-74
2023/07/24 00:07:07;;;;;;;16.48;15.38;;;;;;;24.47;38.82;99502.88;4983358;28;96683;-74
2023/07/24 00:09:32;;;;;;;17.25;16.05;;;;;;;24.25;39.26;99504.25;4977166;28;96835;-74
2023/07/24 00:11:58;;;;;;;17.15;15.85;;;;;;;23.94;39.55;99507.44;4986751;28;98647;-74
2023/07/24 00:14:23;;;;;;;17.70;16.10;;;;;;;23.75;39.60;99510.31;4992847;28;98572;-74
2023/07/24 00:16:49;;;;;;;18.52;15.85;;;;;;;23.72;40.00;99499.91;4994399;28;97101;-74
2023/07/24 00:19:14;;;;;;;16.83;15.27;;;;;;;23.90;39.91;99503.38;4984845;28;96864;-73
2023/07/24 00:21:40;;;;;;;18.83;17.00;;;;;;;24.00;40.21;99500.63;4992496;28;98647;-72
2023/07/24 00:24:05;;;;;;;16.65;15.15;;;;;;;24.04;40.20;99504.66;4992662;28;98459;-73
2023/07/24 00:26:31;;;;;;;16.23;15.05;;;;;;;24.03;39.97;99508.34;4977782;28;96861;-74
2023/07/24 00:28:56;;;;;;;19.30;16.85;;;;;;;23.71;40.68;99512.47;4993477;28;96871;-74
2023/07/24 00:31:22;;;;;;;17.80;16.27;;;;;;;23.33;41.21;99508.28;4974829;28;97736;-72
2023/07/24 00:33:47;;;;;;;16.40;15.20;;;;;;;23.30;41.06;99502.38;4974930;28;98496;-73
2023/07/24 00:36:13;;;;;;;17.15;15.85;;;;;;;23.41;40.98;99505.66;4974171;28;96938;-72
2023/07/24 00:38:39;;;;;;;18.27;16.70;;;;;;;23.54;40.96;99499.09;4979207;28;96864;-73
2023/07/24 00:41:04;;;;;;;18.05;16.58;;;;;;;23.63;41.15;99495.47;4973241;28;100558;-73
2023/07/24 00:43:30;;;;;;;18.35;16.55;;;;;;;23.67;41.33;99492.31;4981108;28;98822;-73
2023/07/24 00:45:56;;;;;;;17.80;16.30;;;;;;;23.70;41.30;99489.34;4987435;28;96699;-72
2023/07/24 00:48:22;;;;;;;18.80;17.13;;;;;;;23.70;41.31;99486.66;4977044;28;96741;-73
2023/07/24 00:50:48;;;;;;;17.13;15.60;;;;;;;23.65;41.36;99483.59;4972838;28;98624;-73
2023/07/24 00:53:15;;;;;;;18.25;16.73;;;;;;;23.59;41.18;99478.88;4974639;28;98521;-72
2023/07/24 00:55:41;;;;;;;17.65;16.45;;;;;;;23.44;41.97;99478.56;4974482;28;96693;-71
2023/07/24 00:58:08;;;;;;;17.02;15.77;;;;;;;23.16;41.97;99488.53;4975999;28;96830;-73
2023/07/24 01:00:34;;;;;;;18.48;16.85;;;;;;;23.09;41.96;99484.78;4973007;28;98851;-73
2023/07/24 01:03:01;;;;;;;18.17;16.20;;;;;;;22.95;42.00;99488.84;4973216;28;100040;-72
2023/07/24 01:05:26;;;;;;;17.77;16.38;;;;;;;22.79;42.20;99494.81;4975124;28;96921;-73
2023/07/24 01:07:52;;;;;;;17.60;15.82;;;;;;;22.58;42.77;99489.75;4976296;28;96831;-73
2023/07/24 01:10:18;;;;;;;17.58;16.23;;;;;;;22.42;42.78;99497.56;4977539;28;97847;-72
2023/07/24 01:13:08;;;;;;;18.10;16.35;;;;;;;22.24;42.86;99500.16;4974485;28;97809;-73
2023/07/24 01:15:36;;;;;;;17.93;16.40;;;;;;;22.13;43.20;99506.50;4973862;28;97496;-71
2023/07/24 01:18:10;;;;;;;17.77;16.27;;;;;;;21.94;43.72;99509.25;4973840;28;96756;-71
2023/07/24 01:20:43;;;;;;;21.42;16.02;;;;;;;21.86;44.19;99503.78;4986418;28;99621;-71
2023/07/24 01:23:38;;;;;;;17.95;16.35;;;;;;;21.70;44.73;99502.56;4983338;28;98726;-71
2023/07/24 01:26:05;;;;;;;18.38;16.42;;;;;;;21.52;45.17;99490.06;4973310;28;97201;-71
2023/07/24 01:28:30;;;;;;;21.30;17.25;;;;;;;21.48;45.20;99492.19;4974603;28;96703;-71
2023/07/24 01:30:57;;;;;;;18.42;16.60;;;;;;;21.39;45.38;99496.53;4973213;28;98722;-71
2023/07/24 01:33:23;;;;;;;20.75;16.45;;;;;;;21.40;45.44;99494.69;4972672;28;98812;-71
2023/07/24 01:35:57;;;;;;;18.17;16.42;;;;;;;21.37;45.92;99495.81;4972666;28;97201;-71
2023/07/24 01:38:25;;;;;;;18.17;16.33;;;;;;;21.25;46.21;99495.09;4983650;28;96746;-71
2023/07/24 01:40:54;;;;;;;18.05;16.55;;;;;;;21.27;46.23;99488.78;4973596;28;100560;-72
2023/07/24 01:43:20;;;;;;;17.75;16.45;;;;;;;21.23;46.02;99490.88;4981535;28;98239;-72
2023/07/24 01:45:46;;;;;;;17.65;16.35;;;;;;;21.35;46.25;99486.25;4987715;28;97445;-71
2023/07/24 01:48:11;;;;;;;17.80;16.40;;;;;;;21.47;46.06;99488.66;4974356;28;97046;-71
2023/07/24 01:50:37;;;;;;;18.17;16.40;;;;;;;21.46;46.04;99484.28;4973047;28;98682;-71
2023/07/24 01:53:02;;;;;;;18.45;16.50;;;;;;;21.65;45.77;99486.09;4972623;28;98620;-71
2023/07/24 01:55:28;;;;;;;23.00;16.83;;;;;;;21.60;46.03;99487.53;4974296;28;96639;-71
2023/07/24 01:57:53;;;;;;;18.75;16.80;;;;;;;21.29;46.64;99490.31;4974343;28;97177;-71
2023/07/24 02:00:19;;;;;;;19.70;17.13;;;;;;;21.15;47.07;99483.59;4972901;28;99025;-71
2023/07/24 02:02:45;;;;;;;22.60;17.77;;;;;;;21.05;47.49;99487.22;4972321;28;100532;-71
2023/07/24 02:05:11;;;;;;;18.88;17.20;;;;;;;21.11;47.46;99474.16;4985088;28;96669;-72
2023/07/24 02:07:36;;;;;;;18.40;16.73;;;;;;;21.16;47.37;99479.09;4975843;28;96925;-71
2023/07/24 02:10:02;;;;;;;17.60;16.02;;;;;;;21.22;47.35;99474.03;4978204;28;97250;-71
2023/07/24 02:12:28;;;;;;;18.85;16.92;;;;;;;21.18;47.38;99463.78;4985904;28;98753;-71
2023/07/24 02:14:54;;;;;;;19.90;16.95;;;;;;;21.16;47.47;99463.09;4983277;28;96765;-71
2023/07/24 02:17:20;;;;;;;18.55;16.75;;;;;;;20.98;48.34;99463.78;4977674;28;96758;-72
2023/07/24 02:19:45;;;;;;;18.20;16.60;;;;;;;20.95;48.14;99466.72;4985690;28;97397;-71
2023/07/24 02:22:11;;;;;;;18.75;16.80;;;;;;;20.90;48.32;99460.97;4990417;28;98760;-71
2023/07/24 02:24:36;;;;;;;18.10;16.42;;;;;;;20.89;48.37;99453.13;4977045;28;96920;-71
2023/07/24 02:27:02;;;;;;;18.05;16.58;;;;;;;20.87;48.57;99447.06;4979891;28;96807;-71
2023/07/24 02:29:30;;;;;;;18.42;16.90;;;;;;;21.02;48.17;99445.66;4982638;28;97357;-71
2023/07/24 02:31:57;;;;;;;18.92;16.75;;;;;;;20.99;48.33;99445.94;4977691;28;97280;-72
2023/07/24 02:34:25;;;;;;;17.77;16.30;;;;;;;21.10;48.22;99442.31;4993989;28;96655;-71
2023/07/24 02:36:53;;;;;;;18.67;17.27;;;;;;;21.14;48.21;99433.03;4979491;28;96813;-71
2023/07/24 02:39:19;;;;;;;22.27;16.50;;;;;;;21.25;48.05;99435.53;4975827;28;98626;-73
2023/07/24 02:41:45;;;;;;;22.35;17.25;;;;;;;21.20;48.20;99437.78;4976105;28;97061;-71
2023/07/24 02:44:10;;;;;;;20.73;17.10;;;;;;;21.33;47.95;99442.84;4976503;28;96761;-72
2023/07/24 02:46:36;;;;;;;19.35;17.42;;;;;;;21.19;48.32;99450.28;4976821;28;96849;-71
2023/07/24 02:49:01;;;;;;;18.45;16.35;;;;;;;21.10;48.46;99443.13;4988952;28;99389;-71
2023/07/24 02:51:28;;;;;;;17.90;16.52;;;;;;;20.96;48.94;99448.88;4975707;28;97387;-71
2023/07/24 02:53:55;;;;;;;18.40;16.77;;;;;;;21.09;48.71;99440.59;4975197;28;97588;-71
2023/07/24 02:56:20;;;;;;;18.20;16.60;;;;;;;21.24;48.24;99436.53;4976447;28;96813;-71
2023/07/24 02:58:46;;;;;;;18.38;16.83;;;;;;;21.30;48.22;99435.97;4979342;28;98550;-71
2023/07/24 03:01:14;;;;;;;18.95;17.25;;;;;;;21.17;48.87;99435.41;4975319;28;98327;-71
2023/07/24 03:03:40;;;;;;;19.20;17.27;;;;;;;21.05;49.05;99442.72;4980295;28;97081;-71
2023/07/24 03:06:05;;;;;;;19.30;17.63;;;;;;;20.92;49.47;99439.50;4983424;28;96917;-72
2023/07/24 03:08:31;;;;;;;18.08;16.50;;;;;;;20.92;49.65;99444.81;4974343;28;99179;-71
2023/07/24 03:10:57;;;;;;;18.45;16.70;;;;;;;20.84;49.40;99428.69;4975962;28;98759;-71
2023/07/24 03:13:23;;;;;;;17.88;16.38;;;;;;;20.73;49.99;99434.97;4975929;28;97330;-71
2023/07/24 03:15:56;;;;;;;18.05;16.38;;;;;;;20.64;50.19;99430.47;4975906;28;97164;-71
2023/07/24 03:18:22;;;;;;;18.50;16.67;;;;;;;20.76;49.92;99432.03;4993415;28;100282;-73
2023/07/24 03:20:49;;;;;;;17.73;16.25;;;;;;;20.70;50.10;99432.59;4993927;28;97320;-71
2023/07/24 03:23:15;;;;;;;20.38;17.02;;;;;;;20.63;50.21;99429.63;4992782;28;96867;-71
2023/07/24 03:25:41;;;;;;;18.00;16.42;;;;;;;20.69;50.07;99431.75;4978964;28;96907;-73
2023/07/24 03:28:06;;;;;;;17.48;15.70;;;;;;;20.66;50.04;99433.84;4975745;28;98708;-71
2023/07/24 03:30:32;;;;;;;18.55;16.77;;;;;;;20.62;50.29;99435.09;4974947;28;98396;-71
2023/07/24 03:32:57;;;;;;;18.42;16.73;;;;;;;20.57;50.48;99435.53;4976002;28;96774;-73
2023/07/24 03:35:23;;;;;;;18.23;16.63;;;;;;;20.60;50.41;99439.75;4975640;28;96819;-73
2023/07/24 03:37:48;;;;;;;17.40;15.48;;;;;;;20.66;50.29;99442.69;4985183;28;100526;-71
2023/07/24 03:40:15;;;;;;;18.40;16.73;;;;;;;20.62;50.48;99443.94;4974872;28;98388;-71
2023/07/24 03:42:41;;;;;;;18.98;17.13;;;;;;;20.66;50.34;99445.34;4975820;28;96887;-71
2023/07/24 03:45:07;;;;;;;18.75;16.13;;;;;;;20.61;50.61;99441.41;4976363;28;98187;-71
2023/07/24 03:47:33;;;;;;;16.15;14.70;;;;;;;20.65;50.40;99440.97;4980713;28;99205;-71
2023/07/24 03:49:58;;;;;;;17.98;15.00;;;;;;;20.57;50.61;99432.84;4975431;28;97691;-72
2023/07/24 03:52:24;;;;;;;16.45;15.30;;;;;;;20.54;50.85;99428.63;4982794;28;97290;-73
2023/07/24 03:54:51;;;;;;;17.13;15.82;;;;;;;20.55;50.52;99422.31;4975467;28;96756;-71
2023/07/24 03:57:17;;;;;;;16.90;15.43;;;;;;;20.50;50.92;99419.19;4975017;28;98755;-72
2023/07/24 03:59:42;;;;;;;19.15;17.38;;;;;;;20.61;50.68;99420.09;4974876;28;98274;-73
2023/07/24 04:02:08;;;;;;;18.50;16.65;;;;;;;20.53;50.93;99418.09;4975227;28;96753;-71
2023/07/24 04:04:33;;;;;;;18.42;17.05;;;;;;;20.57;50.86;99419.53;4975522;28;96944;-71
2023/07/24 04:06:59;;;;;;;19.70;18.05;;;;;;;20.67;50.53;99424.84;4988113;28;98646;-71
2023/07/24 04:09:25;;;;;;;18.45;17.05;;;;;;;20.81;50.36;99419.13;4973458;28;98326;-73
2023/07/24 04:11:50;;;;;;;18.98;17.60;;;;;;;20.87;50.25;99426.56;4974839;28;96939;-73
2023/07/24 04:14:16;;;;;;;18.85;17.15;;;;;;;20.93;50.17;99428.66;4975331;28;97077;-73
2023/07/24 04:16:41;;;;;;;20.05;18.00;;;;;;;20.85;50.21;99435.69;4978757;28;98888;-73
2023/07/24 04:19:07;;;;;;;18.80;17.17;;;;;;;20.95;50.30;99440.06;4979148;28;98792;-73
2023/07/24 04:21:32;;;;;;;19.25;17.95;;;;;;;20.95;50.06;99439.22;4990265;28;98658;-73
2023/07/24 04:23:58;;;;;;;18.50;17.00;;;;;;;21.17;49.85;99441.56;4981955;28;98079;-73
2023/07/24 04:26:23;;;;;;;18.60;17.02;;;;;;;21.42;49.51;99444.69;4974245;28;98604;-73
2023/07/24 04:28:49;;;;;;;19.63;17.50;;;;;;;21.63;49.06;99441.84;4973707;28;99150;-71
2023/07/24 04:31:14;;;;;;;19.33;18.02;;;;;;;21.68;48.93;99432.41;4973953;28;97259;-73
2023/07/24 04:33:40;;;;;;;18.17;16.67;;;;;;;21.68;48.94;99434.25;4975156;28;96839;-71
2023/07/24 04:36:05;;;;;;;19.17;17.80;;;;;;;21.45;49.06;99439.06;4974266;28;99048;-71
2023/07/24 04:38:31;;;;;;;18.35;16.05;;;;;;;21.36;49.52;99431.88;4984504;28;98289;-71
2023/07/24 04:40:56;;;;;;;20.10;17.30;;;;;;;21.42;49.62;99432.19;4984719;28;96787;-71
2023/07/24 04:43:22;;;;;;;19.90;18.52;;;;;;;21.39;49.69;99436.97;4975062;28;96828;-71
2023/07/24 04:45:47;;;;;;;18.45;17.05;;;;;;;21.35;49.73;99433.72;4974444;28;99122;-73
2023/07/24 04:48:13;;;;;;;18.73;17.00;;;;;;;21.23;50.15;99441.03;4974368;28;98322;-73
2023/07/24 04:50:38;;;;;;;17.83;16.52;;;;;;;21.43;49.55;99439.19;4981475;28;97134;-73
2023/07/24 04:53:04;;;;;;;18.52;17.02;;;;;;;21.44;50.05;99430.22;4974849;28;96942;-73
2023/07/24 04:55:29;;;;;;;19.30;17.80;;;;;;;21.44;50.12;99430.22;4974207;28;98770;-72
2023/07/24 04:57:55;;;;;;;20.00;18.15;;;;;;;21.46;49.83;99435.41;4974301;28;98376;-73
2023/07/24 05:00:20;;;;;;;19.25;17.85;;;;;;;21.62;49.61;99435.66;4974189;28;97507;-73
2023/07/24 05:02:46;;;;;;;18.58;17.27;;;;;;;21.61;49.65;99436.66;4974902;28;96824;-73
2023/07/24 05:05:11;;;;;;;19.63;18.13;;;;;;;21.69;49.38;99418.06;4974796;28;98903;-73
2023/07/24 05:07:37;;;;;;;19.52;17.95;;;;;;;21.69;49.32;99423.41;4974680;28;98623;-73
2023/07/24 05:10:03;;;;;;;18.80;17.38;;;;;;;21.76;49.19;99422.81;4986259;28;97071;-73
2023/07/24 05:12:28;;;;;;;18.98;17.65;;;;;;;21.91;48.89;99419.53;4977069;28;96832;-73
2023/07/24 05:14:54;;;;;;;20.23;18.23;;;;;;;21.88;49.29;99425.19;4973492;28;98935;-73
2023/07/24 05:17:19;;;;;;;21.42;19.20;;;;;;;21.85;49.54;99422.81;4983821;28;98252;-73
2023/07/24 05:19:45;;;;;;;19.23;17.67;;;;;;;22.00;49.23;99420.50;4984180;28;96907;-73
2023/07/24 05:22:10;;;;;;;18.98;17.45;;;;;;;22.24;48.64;99409.28;4988328;28;96782;-73
2023/07/24 05:24:39;;;;;;;17.80;16.50;;;;;;;22.43;48.30;99407.47;4973983;28;98974;-73
2023/07/24 05:27:07;;;;;;;19.73;18.30;;;;;;;22.56;47.79;99403.47;4974121;28;98683;-73
2023/07/24 05:29:33;;;;;;;19.67;18.25;;;;;;;22.68;47.36;99393.38;4974329;28;96845;-73
2023/07/24 05:32:01;;;;;;;19.65;17.60;;;;;;;22.89;46.54;99389.56;4973983;28;96871;-73
2023/07/24 05:34:27;;;;;;;18.80;17.20;;;;;;;23.04;46.24;99380.88;4978475;28;98681;-73
2023/07/24 05:36:52;;;;;;;19.52;17.92;;;;;;;23.22;45.71;99375.50;4991897;28;98677;-73
2023/07/24 05:39:18;;;;;;;18.15;16.85;;;;;;;23.53;45.45;99376.84;4974995;28;96789;-73
2023/07/24 05:41:43;;;;;;;20.13;17.30;;;;;;;23.92;45.05;99380.78;4982526;28;96980;-73
2023/07/24 05:44:09;;;;;;;18.88;17.42;;;;;;;24.16;44.27;99371.16;4978435;28;98768;-73
2023/07/24 05:46:35;;;;;;;19.55;17.85;;;;;;;23.94;43.88;99370.75;4977403;28;98945;-73
2023/07/24 05:49:01;;;;;;;19.63;18.13;;;;;;;23.83;43.85;99365.69;4977384;28;96646;-73
2023/07/24 05:51:27;;;;;;;19.73;17.92;;;;;;;23.84;44.16;99358.47;4976996;28;97039;-73
2023/07/24 05:53:53;;;;;;;19.95;18.20;;;;;;;23.76;44.54;99353.91;4976632;28;98514;-73
2023/07/24 05:56:18;;;;;;;20.30;18.67;;;;;;;24.04;44.37;99353.72;4977008;28;98637;-73
2023/07/24 05:58:43;;;;;;;19.42;17.63;;;;;;;24.31;43.80;99350.75;4977464;28;96999;-73
2023/07/24 06:01:10;;;;;;;19.65;17.95;;;;;;;24.27;43.68;99345.91;4977301;28;97374;-74
2023/07/24 06:03:36;;;;;;;20.10;18.40;;;;;;;24.23;43.28;99348.09;4990150;28;98759;-73
2023/07/24 06:06:01;;;;;;;19.65;17.58;;;;;;;24.20;43.01;99344.88;4976837;28;98328;-73
2023/07/24 06:08:27;;;;;;;19.20;17.75;;;;;;;24.23;43.11;99350.75;4975799;28;96842;-73
2023/07/24 06:10:52;;;;;;;19.90;18.20;;;;;;;24.12;42.59;99345.69;4988171;28;96791;-73
2023/07/24 06:13:18;;;;;;;19.95;17.95;;;;;;;24.19;42.41;99346.72;4978457;28;98689;-73
2023/07/24 06:15:44;;;;;;;19.88;17.95;;;;;;;24.03;42.55;99343.97;4976609;28;98776;-73
2023/07/24 06:18:10;;;;;;;19.50;17.90;;;;;;;24.06;42.62;99341.00;4977048;28;96665;-73
2023/07/24 06:20:36;;;;;;;19.40;17.75;;;;;;;23.95;42.40;99331.41;4990275;28;96876;-73
2023/07/24 06:23:03;;;;;;;18.40;17.17;;;;;;;23.89;42.39;99324.84;4990098;28;97949;-73
2023/07/24 06:25:30;;;;;;;19.27;17.67;;;;;;;23.93;42.41;99333.38;4976454;28;98728;-73
2023/07/24 06:27:56;;;;;;;18.42;17.00;;;;;;;24.01;42.56;99340.63;4980150;28;97861;-73
2023/07/24 06:30:21;;;;;;;19.25;17.83;;;;;;;24.02;42.55;99340.44;4981934;28;97003;-73
2023/07/24 06:32:48;;;;;;;19.05;17.52;;;;;;;24.00;42.78;99344.28;4976406;28;97589;-73
2023/07/24 06:35:13;;;;;;;19.55;18.00;;;;;;;24.04;42.72;99349.19;4975405;28;98346;-73
2023/07/24 06:37:39;;;;;;;19.83;17.98;;;;;;;24.16;42.55;99355.09;4979822;28;96965;-73
2023/07/24 06:40:06;;;;;;;20.10;18.08;;;;;;;24.15;42.14;99350.72;4976206;28;96869;-73
2023/07/24 06:42:32;;;;;;;20.02;17.95;;;;;;;24.14;42.27;99346.34;4988375;28;98956;-73
2023/07/24 06:44:57;;;;;;;20.00;18.33;;;;;;;24.27;42.47;99345.91;4984627;28;98482;-73
2023/07/24 06:47:24;;;;;;;20.58;18.42;;;;;;;24.20;43.18;99343.03;4982138;28;98249;-73
2023/07/24 06:49:50;;;;;;;19.40;17.65;;;;;;;24.31;43.27;99352.59;4979245;28;97153;-73
2023/07/24 06:52:15;;;;;;;18.77;17.48;;;;;;;24.51;43.09;99345.97;4975324;28;98579;-73
2023/07/24 06:54:40;;;;;;;19.40;17.80;;;;;;;24.69;42.90;99332.41;4975013;28;98543;-76
2023/07/24 06:57:06;;;;;;;19.63;18.05;;;;;;;24.69;43.04;99329.72;4982042;28;96802;-77
2023/07/24 06:59:32;;;;;;;19.85;18.35;;;;;;;24.87;42.81;99326.03;4980208;28;96913;-72
2023/07/24 07:01:57;;;;;;;19.55;18.08;;;;;;;25.14;42.25;99333.78;4976530;28;98993;-72
2023/07/24 07:04:23;;;;;;;19.63;18.13;;;;;;;25.65;41.45;99326.25;4985270;28;98676;-72
2023/07/24 07:06:48;;;;;;;22.05;19.98;;;;;;;26.20;40.39;99332.59;4985848;28;96797;-72
2023/07/24 07:09:14;;;;;;;20.00;18.55;;;;;;;26.19;39.96;99317.50;4982684;28;96955;-72
2023/07/24 07:11:39;;;;;;;19.13;17.48;;;;;;;26.30;38.87;99327.03;4988592;28;99439;-74
2023/07/24 07:14:05;;;;;;;20.02;18.35;;;;;;;27.23;38.33;99313.38;4991431;28;98325;-72
2023/07/24 07:16:30;;;;;;;19.30;17.92;;;;;;;27.69;36.86;99306.94;4975670;28;96740;-72
2023/07/24 07:18:56;;;;;;;19.80;18.35;;;;;;;27.93;36.56;99306.69;4978328;28;96805;-72
2023/07/24 07:21:21;;;;;;;20.38;18.73;;;;;;;28.06;36.14;99305.16;4987321;28;98909;-72
2023/07/24 07:23:47;;;;;;;19.65;18.15;;;;;;;28.33;35.41;99304.44;4968263;28;100320;-72
2023/07/24 07:26:12;;;;;;;20.25;18.80;;;;;;;29.16;34.27;99310.22;4977891;28;96743;-72
2023/07/24 07:28:38;;;;;;;19.83;18.52;;;;;;;29.78;33.44;99303.13;4975625;28;97031;-73
2023/07/24 07:31:03;;;;;;;19.42;17.92;;;;;;;29.96;32.43;99307.97;4977112;28;99207;-73
2023/07/24 07:33:29;;;;;;;19.02;17.65;;;;;;;30.49;31.45;99310.88;4982222;28;98905;-73
2023/07/24 07:35:55;;;;;;;19.48;18.08;;;;;;;31.71;30.81;99301.44;4988560;28;96812;-73
2023/07/24 07:38:22;;;;;;;19.63;18.33;;;;;;;32.92;29.26;99300.56;4992436;28;97579;-73
2023/07/24 07:40:48;;;;;;;19.02;17.42;;;;;;;33.56;28.46;99293.06;4987637;28;98949;-73
2023/07/24 07:43:13;;;;;;;20.00;18.35;;;;;;;33.76;27.49;99292.03;4988888;28;98798;-73
2023/07/24 07:45:39;;;;;;;19.45;18.05;;;;;;;33.42;28.04;99287.97;4979046;28;97008;-73
2023/07/24 07:48:05;;;;;;;20.20;18.60;;;;;;;34.83;26.84;99283.22;4979795;28;97669;-74
2023/07/24 07:50:30;;;;;;;19.20;17.90;;;;;;;35.06;25.91;99285.16;4975248;28;98501;-73
2023/07/24 07:52:56;;;;;;;20.30;18.10;;;;;;;35.57;23.80;99272.66;4974400;28;98513;-74
2023/07/24 07:55:21;;;;;;;19.52;18.10;;;;;;;36.61;23.81;99272.50;4979511;28;96708;-73
2023/07/24 07:57:47;;;;;;;19.33;18.13;;;;;;;37.86;22.54;99269.38;4980489;28;96825;-73
2023/07/24 08:00:13;;;;;;;18.95;17.80;;;;;;;38.45;21.65;99269.50;4978195;28;98946;-73
2023/07/24 08:02:42;;;;;;;19.30;18.00;;;;;;;39.17;21.47;99275.56;4982735;28;98734;-73
2023/07/24 08:05:08;;;;;;;18.60;17.50;;;;;;;39.43;21.27;99278.47;4974116;28;96738;-73
2023/07/24 08:07:34;;;;;;;20.15;18.73;;;;;;;38.19;21.42;99278.53;4975263;28;97016;-73
2023/07/24 08:10:00;;;;;;;19.42;18.23;;;;;;;38.04;21.74;99281.94;4982179;28;98677;-73
2023/07/24 08:12:25;;;;;;;19.85;18.55;;;;;;;38.75;21.71;99292.78;4988729;28;98355;-73
2023/07/24 08:14:51;;;;;;;19.58;18.27;;;;;;;39.13;21.61;99277.19;4986555;28;96601;-73
2023/07/24 08:17:16;;;;;;;19.63;18.33;;;;;;;39.49;20.99;99267.25;4982002;28;96688;-73
2023/07/24 08:19:42;;;;;;;19.83;18.40;;;;;;;38.39;21.35;99286.13;4988824;28;98524;-73
2023/07/24 08:22:07;;;;;;;19.23;17.73;;;;;;;38.38;21.77;99285.31;4984853;28;98342;-73
2023/07/24 08:24:36;;;;;;;19.67;18.38;;;;;;;36.92;22.92;99282.03;4975664;28;96918;-73
2023/07/24 08:27:02;;;;;;;20.40;19.00;;;;;;;36.85;23.01;99277.81;4983277;28;96872;-73
2023/07/24 08:29:27;;;;;;;21.13;19.60;;;;;;;36.45;23.58;99274.13;4975339;28;98589;-73
2023/07/24 08:31:53;;;;;;;20.05;18.75;;;;;;;35.87;23.82;99285.28;4978360;28;98313;-73
2023/07/24 08:34:18;;;;;;;19.55;18.35;;;;;;;36.22;23.54;99286.00;4989714;28;97039;-73
2023/07/24 08:36:44;;;;;;;20.02;18.60;;;;;;;36.72;22.65;99281.72;4990444;28;96894;-73
2023/07/24 08:39:10;;;;;;;20.05;18.73;;;;;;;36.92;22.62;99270.28;4985947;28;99370;-73
2023/07/24 08:41:37;;;;;;;20.10;18.73;;;;;;;38.79;21.61;99260.19;4974091;28;97426;-73
2023/07/24 08:44:04;;;;;;;20.08;18.77;;;;;;;40.06;20.45;99265.56;4987818;28;96772;-72
2023/07/24 08:46:30;;;;;;;19.05;17.85;;;;;;;39.90;20.35;99270.16;4980738;28;96919;-76
2023/07/24 08:48:56;;;;;;;20.13;18.83;;;;;;;39.85;20.37;99267.41;4983677;28;99022;-76
2023/07/24 08:51:24;;;;;;;20.70;19.25;;;;;;;39.79;20.42;99272.06;4982236;28;98559;-76
2023/07/24 08:53:50;;;;;;;18.80;17.60;;;;;;;39.46;20.26;99266.97;4983299;28;96813;-76
2023/07/24 08:56:15;;;;;;;20.08;18.48;;;;;;;39.36;20.64;99268.56;4980976;28;97978;-77
2023/07/24 08:58:41;;;;;;;19.58;17.83;;;;;;;39.50;20.95;99260.66;4976720;28;97756;-76
2023/07/24 09:01:08;;;;;;;19.63;18.33;;;;;;;38.77;21.34;99265.09;4973744;28;98650;-76
2023/07/24 09:03:35;;;;;;;20.40;19.10;;;;;;;38.16;22.07;99257.97;4974331;28;97079;-76
2023/07/24 09:06:04;;;;;;;20.92;19.48;;;;;;;37.28;22.57;99255.22;4976867;28;96806;-76
2023/07/24 09:08:40;;;;;;;20.50;18.98;;;;;;;36.47;23.28;99241.06;4976474;28;98727;-75
2023/07/24 09:11:07;;;;;;;21.67;20.27;;;;;;;35.05;24.76;99250.75;4981479;28;98541;-75
2023/07/24 09:13:35;;;;;;;22.30;20.65;;;;;;;35.46;24.84;99230.69;4993141;28;96545;-75
2023/07/24 09:16:00;;;;;;;20.92;19.55;;;;;;;35.15;25.35;99229.19;4992443;28;96922;-77
2023/07/24 09:18:26;;;;;;;20.63;19.20;;;;;;;35.11;24.78;99226.13;4973635;28;99187;-70
2023/07/24 09:20:52;;;;;;;24.02;22.42;;;;;;;35.07;26.05;99229.53;4986470;28;98376;-70
2023/07/24 09:23:26;;;;;;;21.30;19.90;;;;;;;34.84;25.70;99227.63;4982136;28;96680;-70
2023/07/24 09:25:52;;;;;;;21.55;20.15;;;;;;;34.54;25.47;99219.53;4976325;28;96903;-70
2023/07/24 09:28:18;;;;;;;21.25;19.63;;;;;;;33.92;26.23;99220.66;4973972;28;98584;-70
2023/07/24 09:30:57;;;;;;;21.20;19.80;;;;;;;33.61;27.06;99218.13;4974916;28;98264;-70
2023/07/24 09:33:39;;;;;;;20.10;18.70;;;;;;;33.10;27.30;99221.00;4975023;28;96762;-70
2023/07/24 09:36:08;;;;;;;20.60;19.20;;;;;;;32.54;27.78;99219.16;4974096;28;96916;-69
2023/07/24 09:38:34;;;;;;;20.90;19.50;;;;;;;32.38;28.15;99227.84;4984123;28;99094;-69
2023/07/24 09:41:02;;;;;;;20.60;19.20;;;;;;;32.15;28.58;99223.81;4975167;28;98656;-69
2023/07/24 09:43:28;;;;;;;20.98;19.20;;;;;;;32.01;28.67;99228.50;4982589;28;96800;-69
2023/07/24 09:45:54;;;;;;;20.67;19.38;;;;;;;31.95;29.31;99220.41;4973921;28;96908;-69
2023/07/24 09:48:21;;;;;;;19.50;18.10;;;;;;;32.06;29.30;99218.84;4979675;28;98684;-69
2023/07/24 09:50:49;;;;;;;19.17;17.67;;;;;;;32.05;28.47;99209.88;4971141;28;98401;-69
2023/07/24 09:53:18;;;;;;;19.77;18.42;;;;;;;32.29;28.52;99208.28;4983474;28;96755;-69
2023/07/24 09:55:57;;;;;;;20.00;18.57;;;;;;;32.37;28.51;99212.59;4973167;28;97496;-69
2023/07/24 09:58:24;;;;;;;20.35;18.90;;;;;;;32.50;28.47;99215.25;4973224;28;98796;-69
2023/07/24 10:00:50;;;;;;;21.00;19.50;;;;;;;32.21;28.40;99217.50;4975171;28;98463;-93
2023/07/24 10:03:16;;;;;;;21.75;19.83;;;;;;;32.30;28.50;99223.50;4986811;28;96869;-89
2023/07/24 10:05:44;;;;;;;21.25;19.75;;;;;;;32.29;28.51;99208.28;4978790;28;96749;-89
2023/07/24 10:08:15;;;;;;;21.30;19.30;;;;;;;32.27;28.49;99207.66;4993494;28;99162;-93
2023/07/24 10:10:41;;;;;;;20.02;18.67;;;;;;;32.25;28.55;99212.47;4995212;28;98458;-94
2023/07/24 10:13:10;;;;;;;21.48;19.98;;;;;;;32.01;28.85;99214.94;4995217;28;96706;-95
2023/07/24 10:15:39;;;;;;;22.63;21.02;;;;;;;31.68;28.82;99212.38;4996325;28;98603;-93
2023/07/24 10:18:08;;;;;;;16.83;15.48;;;;;;;31.34;29.43;99200.78;4995669;28;97655;-92
2023/07/24 10:20:39;;;;;;;18.05;16.55;;;;;;;31.05;29.49;99198.59;4979500;28;98606;-91
2023/07/24 10:23:07;;;;;;;20.52;19.05;;;;;;;30.99;29.74;99200.28;4986691;28;97352;-92
2023/07/24 10:25:34;;;;;;;15.77;14.48;;;;;;;30.84;30.28;99203.22;4985221;28;96789;-88
2023/07/24 10:28:10;;;;;;;20.83;19.40;;;;;;;30.67;30.55;99202.78;4977764;28;98848;-85
2023/07/24 10:30:40;;;;;;;20.55;19.05;;;;;;;30.52;31.01;99204.88;4985659;28;98904;-84
2023/07/24 10:33:06;;;;;;;20.88;19.05;;;;;;;30.28;31.43;99210.88;4980196;28;96767;-83
2023/07/24 10:35:43;;;;;;;20.52;19.08;;;;;;;30.16;31.68;99207.94;4984127;28;96774;-86
2023/07/24 10:38:10;;;;;;;19.80;18.40;;;;;;;29.94;32.54;99208.09;4986054;28;99128;-80
2023/07/24 10:40:35;;;;;;;20.30;18.92;;;;;;;29.93;32.75;99200.19;4980802;28;98748;-87
2023/07/24 10:43:05;;;;;;;21.50;19.90;;;;;;;29.94;33.13;99205.41;4980515;28;96696;-85
2023/07/24 10:45:42;;;;;;;22.23;20.53;;;;;;;30.04;33.18;99206.88;4981730;28;97883;-87
2023/07/24 10:48:11;;;;;;;21.60;19.85;;;;;;;29.96;32.98;99183.53;4984107;28;99265;-82
2023/07/24 10:50:44;;;;;;;21.77;20.20;;;;;;;29.96;32.61;99189.81;4983396;28;98821;-95
2023/07/24 10:53:12;;;;;;;21.58;19.98;;;;;;;29.86;32.75;99188.53;4998482;28;96648;-91
2023/07/24 10:55:38;;;;;;;22.08;20.38;;;;;;;29.60;33.18;99173.84;4976755;28;96726;-76
2023/07/24 10:58:04;;;;;;;21.20;19.63;;;;;;;29.62;33.33;99179.06;4978445;28;98785;-77
2023/07/24 11:00:29;;;;;;;21.70;20.13;;;;;;;29.61;33.37;99161.16;4975327;28;98410;-77
2023/07/24 11:02:55;;;;;;;21.30;19.65;;;;;;;29.55;33.94;99160.09;4988923;28;97413;-78
2023/07/24 11:05:22;;;;;;;21.85;20.17;;;;;;;29.11;34.38;99164.91;4979249;28;96862;-77
2023/07/24 11:07:48;;;;;;;21.88;20.27;;;;;;;28.97;34.12;99156.91;4984455;28;98963;-77
2023/07/24 11:10:18;;;;;;;21.73;19.95;;;;;;;29.12;34.29;99163.06;4973724;28;98185;-77
2023/07/24 11:12:44;;;;;;;21.63;19.95;;;;;;;29.30;34.92;99162.53;4977932;28;96661;-77
2023/07/24 11:15:11;;;;;;;21.85;19.92;;;;;;;29.54;34.78;99156.56;4984870;28;96810;-76